Weather at Pantnagar Airport

Public forecast

Using degrees Celsius for public forecast. Weather courtesy of forecast.io.

Current aviation weather report (METAR) for Pantnagar Airport

2024/05/30 09:00 (retrieved 22 minutes ago)

VIPT 300900Z 16003KT 5000 HZ FEW030 41/20 Q0998

Aviation forecast (TAF) for Pantnagar Airport

2024/05/30 06:01 (retrieved 3 hours ago)

TAF VIPT 300501Z 3006/3112 10009KT 5000 HZ NSC TEMPO 3008/3012 15010G20KT 2000 -TSRA SCT025 FEW035CB BKN080 BECMG 3015/3017 07005KT 4000 HZ SCT030 BECMG 3100/3102 05005KT 3000 HZ FEW040 BECMG 3104/3106 15008KT 4000 HZ BECMG 3108/3110 27008G18KT 6000